Dewees Island, South Carolina
Current Conditions -  °F | °C
As of 4:35 AM on Thursday 27 Nov 2014 (Local Time) from KLRO Reporting Station
Clear Clear  
Wind Chill: 42°   Ceiling: Unl
Heat Index: 45°   Visibility: 10mi
Dew Point: 37°   Wind: 5mph
Humidity: 76%   Direction: 200°SSW
Pressure: 30.09"   Gusts: NA
Location:  32.8046°N, 79.7534°W
Report Text: KLRO 270935Z AUTO 20004KT 10SM CLR 07/03 A3009 RMK AO2 PWINO PNO
Loading
Personal Weather Stations






























Interactive Weather Map New forecast layout! Learn more

10-Day Weather Forecast

Advertisements
Track Severe Weather on mobile